createdAt,value
2023-01-03T00:01:43.933Z,4.00
2023-01-03T00:04:13.456Z,3.80
2023-01-03T00:06:45.270Z,3.80
2023-01-03T00:09:16.477Z,3.80
2023-01-03T00:12:04.946Z,3.80
2023-01-03T00:14:36.608Z,3.80
2023-01-03T00:17:08.390Z,3.70
2023-01-03T00:19:38.777Z,3.60
2023-01-03T00:22:08.345Z,3.50
2023-01-03T00:24:37.455Z,3.50
2023-01-03T00:27:06.511Z,3.50
2023-01-03T00:29:35.469Z,3.40
2023-01-03T00:32:04.540Z,3.40
2023-01-03T00:34:35.460Z,3.40
2023-01-03T00:37:04.448Z,3.30
2023-01-03T00:39:33.210Z,3.30
2023-01-03T00:42:02.466Z,3.20
2023-01-03T00:44:31.347Z,3.10
2023-01-03T00:47:02.923Z,3.10
2023-01-03T00:49:32.153Z,3.20
2023-01-03T00:52:02.366Z,3.30
2023-01-03T00:54:31.339Z,3.20
2023-01-03T00:57:00.216Z,3.20
2023-01-03T00:59:29.070Z,3.30
2023-01-03T01:01:58.703Z,3.20
2023-01-03T01:04:29.621Z,3.00
2023-01-03T01:07:00.906Z,3.00
2023-01-03T01:09:33.518Z,3.30
2023-01-03T01:12:04.152Z,3.30
2023-01-03T01:14:33.845Z,3.30
2023-01-03T01:17:05.184Z,3.30
2023-01-03T01:19:35.706Z,3.50
2023-01-03T01:22:04.875Z,3.60
2023-01-03T01:24:35.560Z,3.60
2023-01-03T01:27:04.796Z,3.60
2023-01-03T01:29:33.687Z,3.60
2023-01-03T01:32:03.291Z,3.70
2023-01-03T01:34:32.531Z,3.80
2023-01-03T01:37:01.474Z,3.90
2023-01-03T01:39:31.220Z,4.00
2023-01-03T01:42:21.669Z,4.10
2023-01-03T01:44:56.097Z,4.10
2023-01-03T01:47:37.184Z,4.10
2023-01-03T01:50:16.180Z,4.20
2023-01-03T01:52:49.295Z,4.20
2023-01-03T01:55:24.167Z,4.10
2023-01-03T01:57:55.856Z,4.10
2023-01-03T02:00:25.015Z,4.10
2023-01-03T02:02:55.457Z,4.10
2023-01-03T02:05:35.905Z,4.00
2023-01-03T02:08:05.215Z,3.90
2023-01-03T02:10:51.463Z,3.80
2023-01-03T02:13:32.429Z,3.60
2023-01-03T02:16:21.842Z,3.40
2023-01-03T02:19:04.208Z,3.30
2023-01-03T02:22:07.921Z,3.30
2023-01-03T02:25:39.870Z,3.10
2023-01-03T02:28:44.304Z,3.20
2023-01-03T02:31:25.085Z,3.00
2023-01-03T02:34:01.362Z,2.90
2023-01-03T02:36:41.336Z,2.90
2023-01-03T02:39:21.933Z,2.80
2023-01-03T02:42:18.297Z,2.70
2023-01-03T02:44:55.857Z,2.70
2023-01-03T02:47:29.509Z,2.80
2023-01-03T02:50:05.238Z,2.80
2023-01-03T02:52:34.444Z,2.80
2023-01-03T02:55:07.356Z,2.60
2023-01-03T02:57:41.410Z,2.60
2023-01-03T03:00:13.072Z,2.40
2023-01-03T03:02:51.882Z,2.30
2023-01-03T03:05:25.948Z,2.30
2023-01-03T03:07:54.697Z,2.20
2023-01-03T03:10:41.884Z,2.30
2023-01-03T03:13:17.340Z,2.30
2023-01-03T03:15:51.324Z,2.30
2023-01-03T03:18:26.704Z,2.30
2023-01-03T03:21:16.208Z,2.30
2023-01-03T03:24:04.179Z,2.30
2023-01-03T03:26:43.602Z,2.40
2023-01-03T03:29:15.375Z,2.50
2023-01-03T03:31:47.737Z,2.70
2023-01-03T03:34:20.917Z,2.80
2023-01-03T03:36:56.364Z,3.00
2023-01-03T03:39:43.378Z,3.10
2023-01-03T03:42:39.768Z,3.30
2023-01-03T03:45:17.354Z,3.50
2023-01-03T03:47:52.457Z,3.60
2023-01-03T03:50:26.719Z,3.70
2023-01-03T03:53:00.905Z,3.80
2023-01-03T03:55:35.063Z,3.80
2023-01-03T03:58:08.901Z,3.90
2023-01-03T04:00:40.886Z,4.00
2023-01-03T04:03:11.966Z,4.00
2023-01-03T04:05:45.768Z,4.00
2023-01-03T04:08:14.445Z,4.00
2023-01-03T04:10:43.727Z,4.10
2023-01-03T04:13:12.579Z,4.10
2023-01-03T04:15:41.390Z,4.20
2023-01-03T04:18:10.105Z,4.20
2023-01-03T04:20:38.907Z,4.30
2023-01-03T04:23:08.950Z,4.30
2023-01-03T04:25:37.617Z,4.40
2023-01-03T04:28:06.732Z,4.40
2023-01-03T04:30:35.479Z,4.50
2023-01-03T04:33:05.515Z,4.50
2023-01-03T04:35:34.642Z,4.50
2023-01-03T04:38:03.610Z,4.60
2023-01-03T04:40:35.491Z,4.60
2023-01-03T04:43:22.053Z,4.60
2023-01-03T04:45:51.331Z,4.70
2023-01-03T04:48:20.086Z,4.70
2023-01-03T04:50:53.560Z,4.70
2023-01-03T04:53:23.168Z,4.70
2023-01-03T04:55:56.763Z,4.70
2023-01-03T04:58:25.740Z,4.70
2023-01-03T05:01:00.509Z,4.70
2023-01-03T05:03:29.773Z,4.70
2023-01-03T05:06:02.079Z,4.70
2023-01-03T05:08:31.128Z,4.70
2023-01-03T05:11:01.250Z,4.70
2023-01-03T05:13:30.144Z,4.70
2023-01-03T05:16:04.571Z,4.70
2023-01-03T05:18:33.431Z,4.70
2023-01-03T05:21:24.434Z,4.80
2023-01-03T05:24:10.513Z,4.80
2023-01-03T05:26:42.686Z,4.90
2023-01-03T05:29:12.550Z,4.90
2023-01-03T05:31:41.537Z,4.90
2023-01-03T05:34:10.287Z,4.90
2023-01-03T05:36:39.028Z,5.00
2023-01-03T05:39:08.355Z,5.00
2023-01-03T05:41:54.576Z,5.00
2023-01-03T05:44:24.967Z,5.00
2023-01-03T05:46:54.662Z,5.00
2023-01-03T05:49:23.393Z,5.00
2023-01-03T05:51:52.234Z,4.90
2023-01-03T05:54:21.575Z,4.90
2023-01-03T05:56:51.331Z,4.90
2023-01-03T05:59:21.179Z,5.00
2023-01-03T06:01:51.744Z,5.00
2023-01-03T06:04:20.849Z,4.90
2023-01-03T06:06:49.610Z,4.70
2023-01-03T06:09:18.546Z,4.60
2023-01-03T06:11:47.173Z,4.50
2023-01-03T06:14:15.910Z,4.40
2023-01-03T06:17:02.019Z,4.30
2023-01-03T06:19:32.490Z,4.20
2023-01-03T06:22:05.567Z,4.20
2023-01-03T06:24:38.883Z,4.00
2023-01-03T06:27:07.825Z,3.90
2023-01-03T06:29:36.581Z,3.90
2023-01-03T06:32:09.496Z,3.90
2023-01-03T06:34:40.173Z,3.90
2023-01-03T06:37:09.431Z,3.90
2023-01-03T06:39:38.096Z,3.90
2023-01-03T06:42:20.847Z,3.70
2023-01-03T06:45:09.527Z,3.70
2023-01-03T06:47:56.489Z,3.60
2023-01-03T06:50:43.878Z,3.60
2023-01-03T06:53:16.355Z,3.60
2023-01-03T06:55:51.303Z,3.50
2023-01-03T06:58:25.011Z,3.40
2023-01-03T07:00:55.639Z,3.50
2023-01-03T07:03:25.043Z,3.40
2023-01-03T07:05:55.155Z,3.50
2023-01-03T07:08:23.977Z,3.50
2023-01-03T07:10:52.817Z,3.50
2023-01-03T07:13:38.826Z,3.50
2023-01-03T07:16:08.062Z,3.60
2023-01-03T07:18:36.837Z,3.50
2023-01-03T07:21:09.194Z,3.50
2023-01-03T07:23:37.940Z,3.40
2023-01-03T07:26:06.967Z,3.40
2023-01-03T07:28:35.646Z,3.30
2023-01-03T07:31:07.768Z,3.30
2023-01-03T07:33:38.970Z,3.30
2023-01-03T07:36:12.112Z,3.20
2023-01-03T07:38:42.634Z,3.20
2023-01-03T07:41:12.452Z,3.30
2023-01-03T07:43:42.525Z,3.30
2023-01-03T07:46:14.347Z,3.40
2023-01-03T07:48:43.872Z,3.50
2023-01-03T07:51:15.848Z,3.60
2023-01-03T07:53:44.920Z,3.70
2023-01-03T07:56:15.903Z,3.80
2023-01-03T07:58:45.743Z,3.90
2023-01-03T08:01:16.825Z,3.90
2023-01-03T08:03:46.247Z,3.80
2023-01-03T08:06:18.457Z,3.90
2023-01-03T08:09:08.975Z,3.90
2023-01-03T08:11:55.258Z,3.90
2023-01-03T08:14:26.543Z,3.90
2023-01-03T08:16:56.267Z,4.00
2023-01-03T08:19:25.645Z,4.00
2023-01-03T08:21:55.760Z,4.00
2023-01-03T08:24:24.468Z,4.10
2023-01-03T08:26:53.164Z,4.10
2023-01-03T08:29:21.780Z,4.10
2023-01-03T08:31:55.676Z,4.20
2023-01-03T08:34:30.022Z,4.20
2023-01-03T08:37:05.139Z,4.20
2023-01-03T08:39:38.389Z,4.20
2023-01-03T08:42:09.670Z,4.20
2023-01-03T08:44:39.835Z,4.30
2023-01-03T08:47:10.316Z,4.30
2023-01-03T08:49:40.345Z,4.20
2023-01-03T08:52:10.428Z,4.20
2023-01-03T08:54:39.470Z,4.20
2023-01-03T08:57:08.303Z,4.30
2023-01-03T08:59:36.919Z,4.30
2023-01-03T09:02:05.705Z,4.30
2023-01-03T09:04:34.446Z,4.40
2023-01-03T09:07:03.073Z,4.50
2023-01-03T09:09:33.089Z,4.60
2023-01-03T09:12:02.052Z,4.70
2023-01-03T09:14:31.905Z,4.70
2023-01-03T09:17:03.041Z,4.70
2023-01-03T09:19:34.687Z,4.80
2023-01-03T09:22:03.856Z,4.80
2023-01-03T09:24:34.024Z,4.90
2023-01-03T09:27:02.737Z,5.00
2023-01-03T09:29:31.615Z,5.00
2023-01-03T09:32:03.552Z,5.10
2023-01-03T09:34:35.106Z,5.10
2023-01-03T09:37:04.576Z,5.10
2023-01-03T09:39:35.063Z,5.10
2023-01-03T09:42:23.089Z,5.20
2023-01-03T09:44:52.130Z,5.30
2023-01-03T09:47:24.843Z,5.30
2023-01-03T09:53:04.015Z,5.50
2023-01-03T09:55:59.952Z,5.60
2023-01-03T09:58:46.491Z,5.80
2023-01-03T10:01:51.810Z,5.80
2023-01-03T10:04:50.968Z,5.90
2023-01-03T10:07:40.974Z,6.00
2023-01-03T10:10:18.554Z,6.00
2023-01-03T10:12:59.764Z,6.10
2023-01-03T10:15:37.689Z,6.10
2023-01-03T10:18:16.691Z,6.20
2023-01-03T10:20:49.982Z,6.20
2023-01-03T10:23:20.209Z,6.20
2023-01-03T10:25:49.827Z,6.30
2023-01-03T10:28:23.205Z,6.40
2023-01-03T10:31:08.596Z,6.50
2023-01-03T10:33:40.774Z,6.50
2023-01-03T10:36:10.131Z,6.50
2023-01-03T10:38:46.479Z,6.60
2023-01-03T10:41:24.703Z,6.60
2023-01-03T10:44:02.183Z,6.70
2023-01-03T10:46:31.710Z,6.70
2023-01-03T10:49:31.616Z,6.80
2023-01-03T10:52:03.369Z,6.80
2023-01-03T10:54:45.644Z,6.80
2023-01-03T10:57:36.338Z,6.90
2023-01-03T11:00:30.121Z,7.00
2023-01-03T11:03:14.569Z,7.00
2023-01-03T11:05:45.745Z,7.10
2023-01-03T11:08:21.303Z,7.10
2023-01-03T11:10:58.386Z,7.00
2023-01-03T11:13:33.984Z,7.00
2023-01-03T11:16:13.543Z,7.00
2023-01-03T11:18:43.841Z,7.00
2023-01-03T11:21:18.265Z,7.10
2023-01-03T11:24:09.277Z,7.10
2023-01-03T11:26:47.994Z,7.10
2023-01-03T11:29:30.816Z,7.10
2023-01-03T11:32:17.743Z,7.10
2023-01-03T11:35:25.220Z,7.20
2023-01-03T11:38:04.318Z,7.20
2023-01-03T11:40:49.608Z,7.10
2023-01-03T11:43:34.636Z,7.20
2023-01-03T11:46:27.056Z,7.20
2023-01-03T11:49:19.836Z,7.20
2023-01-03T11:51:58.370Z,7.20
2023-01-03T11:54:49.312Z,7.20
2023-01-03T11:57:33.267Z,7.30
2023-01-03T12:00:12.474Z,7.30
2023-01-03T12:03:03.221Z,7.30
2023-01-03T12:05:55.608Z,7.20
2023-01-03T12:08:45.390Z,7.20
2023-01-03T12:11:35.629Z,7.20
2023-01-03T12:14:12.261Z,7.30
2023-01-03T12:16:45.054Z,7.40
2023-01-03T12:19:27.139Z,7.40
2023-01-03T12:22:01.974Z,7.50
2023-01-03T12:24:36.288Z,7.50
2023-01-03T12:27:15.707Z,7.50
2023-01-03T12:29:52.831Z,7.60
2023-01-03T12:32:29.868Z,7.60
2023-01-03T12:35:16.443Z,7.60
2023-01-03T12:37:51.083Z,7.60
2023-01-03T12:40:25.589Z,7.60
2023-01-03T12:43:02.053Z,7.60
2023-01-03T12:45:42.168Z,7.60
2023-01-03T12:48:25.697Z,7.70
2023-01-03T12:50:55.463Z,7.70
2023-01-03T12:53:31.890Z,7.70
2023-01-03T12:56:28.943Z,7.70
2023-01-03T12:59:09.041Z,7.80
2023-01-03T13:01:41.867Z,7.70
2023-01-03T13:04:22.969Z,7.70
2023-01-03T13:06:58.042Z,7.70
2023-01-03T13:09:32.306Z,7.70
2023-01-03T13:12:06.757Z,7.70
2023-01-03T13:14:53.401Z,7.70
2023-01-03T13:17:23.525Z,7.70
2023-01-03T13:19:57.381Z,7.70
2023-01-03T13:22:52.001Z,7.70
2023-01-03T13:25:42.304Z,7.80
2023-01-03T13:28:35.577Z,7.80
2023-01-03T13:31:39.649Z,7.90
2023-01-03T13:34:34.595Z,7.90
2023-01-03T13:37:27.437Z,8.00
2023-01-03T13:40:19.331Z,8.00
2023-01-03T13:42:50.480Z,8.00
2023-01-03T13:45:51.695Z,8.00
2023-01-03T13:48:31.869Z,8.00
2023-01-03T13:51:19.579Z,8.00
2023-01-03T13:53:55.344Z,7.90
2023-01-03T13:56:27.185Z,8.00
2023-01-03T13:59:03.470Z,7.90
2023-01-03T14:01:48.923Z,7.90
2023-01-03T14:05:05.732Z,8.00
2023-01-03T14:08:07.779Z,8.00
2023-01-03T14:11:05.924Z,8.00
2023-01-03T14:13:39.758Z,8.00
2023-01-03T14:16:23.000Z,8.10
2023-01-03T14:19:02.289Z,8.10
2023-01-03T14:21:42.668Z,8.10
2023-01-03T14:24:19.652Z,8.20
2023-01-03T14:26:48.401Z,8.20
2023-01-03T14:29:20.806Z,8.20
2023-01-03T14:31:53.481Z,8.20
2023-01-03T14:34:30.122Z,8.20
2023-01-03T14:37:06.936Z,8.20
2023-01-03T14:42:04.991Z,8.10
2023-01-03T14:44:34.304Z,8.00
2023-01-03T14:47:08.540Z,7.90
2023-01-03T14:49:43.848Z,7.70
2023-01-03T14:52:19.460Z,7.60
2023-01-03T14:54:50.679Z,7.50
2023-01-03T14:57:21.841Z,7.40
2023-01-03T14:59:51.530Z,7.40
2023-01-03T15:02:22.564Z,7.30
2023-01-03T15:04:53.558Z,7.30
2023-01-03T15:07:32.061Z,7.40
2023-01-03T15:10:07.373Z,7.40
2023-01-03T15:12:39.943Z,7.40
2023-01-03T15:15:17.887Z,7.40
2023-01-03T15:17:48.942Z,7.30
2023-01-03T15:20:21.682Z,7.30
2023-01-03T15:22:50.693Z,7.20
2023-01-03T15:25:22.110Z,7.20
2023-01-03T15:27:51.897Z,7.10
2023-01-03T15:30:26.910Z,7.10
2023-01-03T15:33:02.880Z,7.20
2023-01-03T15:35:37.057Z,7.20
2023-01-03T15:38:14.041Z,7.20
2023-01-03T15:40:43.007Z,7.10
2023-01-03T15:43:22.070Z,7.00
2023-01-03T15:45:59.985Z,6.90
2023-01-03T15:48:31.460Z,6.80
2023-01-03T15:51:00.272Z,6.70
2023-01-03T15:53:30.808Z,6.60
2023-01-03T15:56:02.768Z,6.60
2023-01-03T15:58:32.281Z,6.50
2023-01-03T16:01:01.922Z,6.50
2023-01-03T16:03:34.103Z,6.40
2023-01-03T16:06:03.212Z,6.40
2023-01-03T16:08:35.410Z,6.30
2023-01-03T16:11:06.964Z,6.30
2023-01-03T16:13:39.994Z,6.30
2023-01-03T16:16:09.753Z,6.30
2023-01-03T16:18:44.706Z,6.30
2023-01-03T16:21:14.706Z,6.30
2023-01-03T16:23:43.416Z,6.30
2023-01-03T16:26:12.144Z,6.30
2023-01-03T16:28:40.825Z,6.30
2023-01-03T16:31:15.770Z,6.30
2023-01-03T16:33:48.380Z,6.30
2023-01-03T16:36:27.885Z,6.30
2023-01-03T16:38:56.690Z,6.30
2023-01-03T16:41:25.394Z,6.30
2023-01-03T16:43:54.491Z,6.30
2023-01-03T16:46:25.513Z,6.30
2023-01-03T16:48:57.967Z,6.40
2023-01-03T16:51:29.721Z,6.50
2023-01-03T16:54:00.736Z,6.50
2023-01-03T16:56:29.570Z,6.60
2023-01-03T16:58:58.267Z,6.60
2023-01-03T17:01:27.019Z,6.70
2023-01-03T17:03:57.242Z,6.70
2023-01-03T17:06:37.552Z,6.70
2023-01-03T17:09:12.737Z,6.70
2023-01-03T17:11:41.423Z,6.70
2023-01-03T17:14:17.633Z,6.70
2023-01-03T17:16:46.901Z,6.70
2023-01-03T17:20:00.341Z,6.70
2023-01-03T17:22:14.385Z,6.70
2023-01-03T17:24:43.956Z,6.70
2023-01-03T17:27:18.579Z,6.80
2023-01-03T17:29:48.411Z,6.80
2023-01-03T17:32:20.238Z,6.90
2023-01-03T17:34:50.376Z,6.90
2023-01-03T17:37:21.198Z,6.90
2023-01-03T17:39:55.103Z,6.90
2023-01-03T17:42:24.654Z,6.90
2023-01-03T17:45:11.498Z,6.90
2023-01-03T17:48:01.153Z,6.90
2023-01-03T17:50:33.129Z,6.90
2023-01-03T17:53:03.007Z,6.90
2023-01-03T17:55:32.483Z,6.90
2023-01-03T17:58:05.444Z,7.00
2023-01-03T18:00:34.379Z,7.00
2023-01-03T18:03:03.419Z,7.00
2023-01-03T18:05:33.730Z,7.10
2023-01-03T18:08:05.115Z,7.10
2023-01-03T18:10:43.802Z,7.20
2023-01-03T18:13:24.215Z,7.20
2023-01-03T18:15:53.777Z,7.20
2023-01-03T18:18:25.270Z,7.20
2023-01-03T18:20:56.157Z,7.30
2023-01-03T18:23:29.185Z,7.30
2023-01-03T18:26:00.580Z,7.30
2023-01-03T18:28:33.336Z,7.40
2023-01-03T18:31:06.169Z,7.40
2023-01-03T18:33:35.100Z,7.40
2023-01-03T18:36:06.212Z,7.40
2023-01-03T18:38:41.133Z,7.40
2023-01-03T18:41:19.063Z,7.40
2023-01-03T18:43:47.829Z,7.40
2023-01-03T18:46:16.942Z,7.50
2023-01-03T18:48:45.799Z,7.50
2023-01-03T18:51:17.786Z,7.40
2023-01-03T18:53:49.634Z,7.50
2023-01-03T18:56:30.539Z,7.50
2023-01-03T18:59:02.683Z,7.50
2023-01-03T19:01:32.226Z,7.40
2023-01-03T19:04:01.618Z,7.40
2023-01-03T19:06:33.721Z,7.40
2023-01-03T19:09:04.955Z,7.40
2023-01-03T19:11:37.015Z,7.40
2023-01-03T19:14:05.821Z,7.50
2023-01-03T19:16:37.361Z,7.40
2023-01-03T19:19:08.081Z,7.40
2023-01-03T19:21:41.082Z,7.40
2023-01-03T19:24:24.632Z,7.40
2023-01-03T19:26:56.010Z,7.40
2023-01-03T19:29:28.390Z,7.50
2023-01-03T19:31:58.171Z,7.40
2023-01-03T19:34:28.916Z,7.40
2023-01-03T19:36:59.642Z,7.40
2023-01-03T19:39:32.237Z,7.50
2023-01-03T19:42:24.470Z,7.50
2023-01-03T19:44:55.247Z,7.50
2023-01-03T19:47:24.021Z,7.50
2023-01-03T19:49:52.704Z,7.60
2023-01-03T19:52:22.761Z,7.60
2023-01-03T19:54:51.515Z,7.50
2023-01-03T19:57:24.594Z,7.50
2023-01-03T19:59:56.218Z,7.50
2023-01-03T20:02:39.457Z,7.50
2023-01-03T20:05:15.597Z,7.50
2023-01-03T20:07:46.566Z,7.50
2023-01-03T20:10:17.589Z,7.50
2023-01-03T20:12:47.445Z,7.40
2023-01-03T20:15:23.273Z,7.40
2023-01-03T20:17:52.930Z,7.40
2023-01-03T20:20:23.119Z,7.40
2023-01-03T20:23:05.747Z,7.40
2023-01-03T20:25:37.149Z,7.50
2023-01-03T20:28:07.261Z,7.60
2023-01-03T20:30:36.546Z,7.70
2023-01-03T20:33:05.353Z,7.60
2023-01-03T20:36:09.858Z,7.70
2023-01-03T20:38:28.230Z,7.70
2023-01-03T20:40:57.642Z,7.70
2023-01-03T20:43:27.077Z,7.60
2023-01-03T20:45:57.745Z,7.60
2023-01-03T20:48:27.017Z,7.50
2023-01-03T20:50:56.137Z,7.50
2023-01-03T20:53:27.510Z,7.50
2023-01-03T20:55:56.353Z,7.40
2023-01-03T20:58:26.470Z,7.40
2023-01-03T21:01:04.266Z,7.40
2023-01-03T21:03:35.207Z,7.40
2023-01-03T21:06:04.905Z,7.50
2023-01-03T21:08:52.706Z,7.50
2023-01-03T21:11:21.543Z,7.60
2023-01-03T21:13:50.371Z,7.60
2023-01-03T21:16:34.444Z,7.70
2023-01-03T21:19:09.172Z,7.70
2023-01-03T21:21:37.942Z,7.70
2023-01-03T21:24:08.878Z,7.70
2023-01-03T21:26:37.911Z,7.70
2023-01-03T21:29:07.138Z,7.70
2023-01-03T21:31:36.865Z,7.70
2023-01-03T21:34:07.388Z,7.70
2023-01-03T21:36:37.519Z,7.70
2023-01-03T21:39:07.584Z,7.70
2023-01-03T21:41:57.519Z,7.70
2023-01-03T21:44:26.286Z,7.70
2023-01-03T21:46:54.971Z,7.70
2023-01-03T21:49:23.774Z,7.80
2023-01-03T21:51:52.548Z,7.80
2023-01-03T21:54:22.738Z,7.80
2023-01-03T21:56:51.479Z,7.70
2023-01-03T21:59:20.211Z,7.70
2023-01-03T22:02:06.439Z,7.70
2023-01-03T22:04:35.459Z,7.70
2023-01-03T22:07:04.694Z,7.70
2023-01-03T22:09:54.028Z,7.80
2023-01-03T22:12:23.007Z,7.70
2023-01-03T22:14:51.787Z,7.80
2023-01-03T22:17:20.480Z,7.80
2023-01-03T22:19:49.364Z,7.80
2023-01-03T22:22:18.267Z,7.80
2023-01-03T22:24:48.583Z,7.80
2023-01-03T22:27:18.317Z,7.90
2023-01-03T22:29:47.055Z,7.90
2023-01-03T22:32:15.796Z,7.80
2023-01-03T22:34:44.510Z,7.90
2023-01-03T22:37:13.234Z,7.90
2023-01-03T22:39:42.018Z,7.90
2023-01-03T22:42:17.657Z,7.90
2023-01-03T22:44:48.766Z,7.90
2023-01-03T22:47:17.991Z,7.90
2023-01-03T22:49:46.657Z,7.90
2023-01-03T22:52:15.334Z,8.00
2023-01-03T22:54:44.001Z,8.00
2023-01-03T22:57:14.235Z,8.00
2023-01-03T22:59:42.946Z,8.00
2023-01-03T23:02:11.949Z,8.00
2023-01-03T23:04:40.867Z,8.00
2023-01-03T23:07:10.088Z,8.00
2023-01-03T23:09:38.798Z,8.10
2023-01-03T23:12:25.304Z,8.10
2023-01-03T23:14:55.496Z,8.10
2023-01-03T23:17:41.581Z,8.20
2023-01-03T23:20:11.350Z,8.20
2023-01-03T23:22:40.131Z,8.20
2023-01-03T23:25:09.265Z,8.20
2023-01-03T23:27:37.987Z,8.20
2023-01-03T23:30:09.560Z,8.20
2023-01-03T23:32:38.282Z,8.30
2023-01-03T23:35:10.483Z,8.30
2023-01-03T23:37:39.525Z,8.30
2023-01-03T23:40:10.260Z,8.30
2023-01-03T23:42:39.041Z,8.30
2023-01-03T23:45:09.965Z,8.20
2023-01-03T23:47:38.719Z,8.20
2023-01-03T23:50:07.542Z,8.20
2023-01-03T23:52:36.261Z,8.20
2023-01-03T23:55:12.238Z,8.20
2023-01-03T23:57:44.322Z,8.20
